Time;durP1;ratioP1;P1;durP2;ratioP2;P2;SDS_P1;SDS_P2;PMS_P1;PMS_P2;Temp;Humidity;BMP_temperature;BMP_pressure;BME280_temperature;BME280_humidity;BME280_pressure;Samples;Min_cycle;Max_cycle;Signal;HPM_P1;HPM_P2
2021/05/10 00:00:51;;;;;;;8.23;6.90;;;17.70;83.30;;;;;;5027397;28;20160;-81
2021/05/10 00:03:19;;;;;;;8.93;6.45;;;17.60;83.40;;;;;;5027252;28;20032;-81
2021/05/10 00:05:46;;;;;;;10.63;7.30;;;17.60;83.60;;;;;;5062907;28;20033;-81
2021/05/10 00:08:12;;;;;;;10.45;7.50;;;17.50;83.90;;;;;;5047904;28;20084;-81
2021/05/10 00:10:40;;;;;;;9.07;7.07;;;17.40;84.00;;;;;;5063604;28;20037;-81
2021/05/10 00:13:07;;;;;;;11.45;8.27;;;17.40;84.80;;;;;;5043742;28;20103;-81
2021/05/10 00:15:34;;;;;;;8.77;7.15;;;17.40;85.00;;;;;;5051940;28;20045;-81
2021/05/10 00:18:03;;;;;;;9.55;7.63;;;17.30;85.10;;;;;;5026362;28;20037;-81
2021/05/10 00:20:33;;;;;;;10.98;7.50;;;17.20;85.20;;;;;;5053596;28;20210;-81
2021/05/10 00:23:00;;;;;;;9.32;7.72;;;17.20;85.10;;;;;;5029348;28;20397;-81
2021/05/10 00:25:26;;;;;;;7.95;6.97;;;17.20;85.40;;;;;;5042363;28;20407;-81
2021/05/10 00:27:53;;;;;;;9.82;7.25;;;17.10;85.70;;;;;;5049025;28;20309;-81
2021/05/10 00:30:19;;;;;;;11.18;7.72;;;17.10;86.10;;;;;;5032540;28;21842;-81
2021/05/10 00:32:46;;;;;;;10.70;7.68;;;17.00;86.30;;;;;;5024902;28;20402;-81
2021/05/10 00:35:13;;;;;;;9.60;7.25;;;17.00;86.40;;;;;;5049823;28;20049;-81
2021/05/10 00:37:38;;;;;;;9.07;7.20;;;17.00;86.70;;;;;;5043870;28;20599;-82
2021/05/10 00:40:06;;;;;;;8.60;7.65;;;16.90;86.90;;;;;;5040141;28;20083;-81
2021/05/10 00:42:32;;;;;;;9.60;7.20;;;16.90;86.90;;;;;;5040160;28;20663;-81
2021/05/10 00:44:58;;;;;;;11.57;7.93;;;16.90;87.00;;;;;;5045616;28;20381;-81
2021/05/10 00:47:25;;;;;;;10.98;7.72;;;16.80;87.30;;;;;;5046214;28;20044;-81
2021/05/10 00:49:51;;;;;;;11.27;7.90;;;16.80;87.30;;;;;;5023644;28;20496;-81
2021/05/10 00:52:18;;;;;;;14.88;8.57;;;16.80;87.50;;;;;;5042906;28;21395;-81
2021/05/10 00:54:44;;;;;;;11.32;7.80;;;16.70;87.60;;;;;;5032644;28;20037;-81
2021/05/10 00:57:10;;;;;;;9.52;8.48;;;16.70;87.80;;;;;;5029097;28;20029;-81
2021/05/10 00:59:37;;;;;;;10.88;8.20;;;16.70;88.00;;;;;;5046005;28;20129;-81
2021/05/10 01:02:03;;;;;;;14.50;8.95;;;16.60;88.00;;;;;;5032904;28;20043;-82
2021/05/10 01:04:30;;;;;;;18.15;9.82;;;16.50;88.30;;;;;;5046920;28;20487;-82
2021/05/10 01:06:57;;;;;;;12.13;9.93;;;16.50;88.60;;;;;;5059565;28;20066;-81
2021/05/10 01:09:23;;;;;;;15.00;9.77;;;16.50;88.80;;;;;;5013123;28;20029;-81
2021/05/10 01:11:50;;;;;;;10.30;9.30;;;16.50;88.90;;;;;;5038029;28;20045;-81
2021/05/10 01:14:16;;;;;;;11.57;9.68;;;16.50;89.10;;;;;;5035443;28;20033;-81
2021/05/10 01:16:42;;;;;;;10.65;9.50;;;16.50;89.00;;;;;;5040667;28;20040;-81
2021/05/10 01:19:10;;;;;;;11.65;9.50;;;16.50;89.00;;;;;;5022369;28;20041;-81
2021/05/10 01:21:36;;;;;;;11.60;9.25;;;16.50;89.20;;;;;;5030506;28;20036;-81
2021/05/10 01:24:03;;;;;;;13.93;10.07;;;16.50;89.30;;;;;;5049947;28;20100;-81
2021/05/10 01:26:29;;;;;;;11.15;9.35;;;16.50;89.40;;;;;;5061287;28;20036;-82
2021/05/10 01:28:56;;;;;;;11.85;9.50;;;16.50;89.50;;;;;;5064863;28;20036;-81
2021/05/10 01:31:24;;;;;;;13.18;10.70;;;16.50;89.60;;;;;;5079484;28;20047;-80
2021/05/10 01:33:50;;;;;;;12.70;10.13;;;16.50;89.50;;;;;;5057463;28;20037;-81
2021/05/10 01:36:15;;;;;;;11.50;10.27;;;16.50;89.60;;;;;;5053467;28;20025;-81
2021/05/10 01:38:41;;;;;;;12.77;9.70;;;16.40;89.60;;;;;;5034898;28;20033;-81
2021/05/10 01:41:07;;;;;;;14.07;11.15;;;16.50;89.60;;;;;;5058559;28;20045;-81
2021/05/10 01:43:33;;;;;;;12.63;10.52;;;16.40;89.60;;;;;;5052460;28;20044;-81
2021/05/10 01:45:59;;;;;;;13.48;10.48;;;16.40;89.40;;;;;;5038654;28;20147;-81
2021/05/10 01:48:25;;;;;;;12.25;9.98;;;16.50;89.60;;;;;;5048212;28;20093;-81
2021/05/10 01:50:50;;;;;;;16.60;10.52;;;16.40;89.50;;;;;;5004537;28;20385;-81
2021/05/10 01:53:17;;;;;;;15.10;11.05;;;16.40;89.60;;;;;;5056782;28;20036;-81
2021/05/10 01:55:43;;;;;;;17.90;11.80;;;16.40;89.60;;;;;;5052567;28;20037;-82
2021/05/10 01:58:10;;;;;;;18.98;11.40;;;16.40;89.60;;;;;;5042221;28;20037;-81
2021/05/10 02:00:40;;;;;;;15.57;11.05;;;16.40;89.70;;;;;;5050469;28;20033;-81
2021/05/10 02:03:13;;;;;;;15.15;11.98;;;16.40;89.80;;;;;;5044738;28;20047;-82
2021/05/10 02:05:39;;;;;;;17.92;12.20;;;16.40;90.00;;;;;;5046934;28;20558;-81
2021/05/10 02:08:07;;;;;;;15.82;11.27;;;16.40;89.80;;;;;;5045630;28;20209;-81
2021/05/10 02:10:45;;;;;;;15.82;12.50;;;16.40;89.80;;;;;;5042787;28;20037;-81
2021/05/10 02:13:13;;;;;;;15.75;12.48;;;16.40;89.90;;;;;;5047414;28;20471;-80
2021/05/10 02:15:50;;;;;;;16.85;12.43;;;16.50;89.80;;;;;;5053680;28;20040;-82
2021/05/10 02:18:22;;;;;;;20.05;13.07;;;16.50;89.80;;;;;;5033543;28;20313;-81
2021/05/10 02:20:49;;;;;;;15.73;13.65;;;16.50;89.60;;;;;;5033962;28;21206;-83
2021/05/10 02:23:17;;;;;;;16.95;13.27;;;16.50;89.50;;;;;;5020331;28;20364;-82
2021/05/10 02:25:45;;;;;;;14.82;12.90;;;16.50;89.60;;;;;;5044811;28;20037;-82
2021/05/10 02:28:12;;;;;;;16.38;12.23;;;16.50;89.70;;;;;;5029801;28;20517;-82
2021/05/10 02:30:39;;;;;;;13.35;11.95;;;16.50;89.60;;;;;;5042380;28;20042;-81
2021/05/10 02:33:08;;;;;;;18.73;13.60;;;16.50;89.80;;;;;;5046760;28;20380;-82
2021/05/10 02:35:48;;;;;;;19.50;13.60;;;16.50;90.00;;;;;;5058352;28;20037;-81
2021/05/10 02:38:15;;;;;;;18.80;13.45;;;16.40;90.00;;;;;;5038435;28;20495;-82
2021/05/10 02:40:42;;;;;;;16.33;13.13;;;16.40;90.00;;;;;;5061361;28;20036;-81
2021/05/10 02:43:15;;;;;;;18.90;13.05;;;16.40;90.10;;;;;;5014629;28;20472;-82
2021/05/10 02:45:41;;;;;;;16.35;13.15;;;16.40;90.10;;;;;;5053930;28;20044;-81
2021/05/10 02:48:07;;;;;;;18.13;13.75;;;16.40;90.00;;;;;;5032378;28;20059;-82
2021/05/10 02:50:34;;;;;;;18.35;13.65;;;16.40;90.10;;;;;;5052112;28;20036;-82
2021/05/10 02:53:01;;;;;;;16.48;13.38;;;16.40;90.20;;;;;;5036544;28;20307;-82
2021/05/10 02:55:27;;;;;;;14.90;13.00;;;16.40;90.20;;;;;;5031846;28;20496;-82
2021/05/10 02:57:54;;;;;;;19.52;12.65;;;16.30;90.20;;;;;;5032458;28;20033;-81
2021/05/10 03:00:25;;;;;;;16.83;12.30;;;16.40;90.20;;;;;;5037961;28;20033;-81
2021/05/10 03:02:52;;;;;;;17.45;12.07;;;16.40;90.20;;;;;;5025235;28;20041;-81
2021/05/10 03:05:21;;;;;;;20.52;14.35;;;16.40;90.20;;;;;;5043145;28;20025;-82
2021/05/10 03:07:47;;;;;;;17.10;13.50;;;16.40;90.20;;;;;;5052280;28;20044;-81
2021/05/10 03:10:15;;;;;;;17.98;13.50;;;16.40;90.20;;;;;;5028000;28;20036;-81
2021/05/10 03:12:43;;;;;;;18.00;13.23;;;16.40;90.20;;;;;;5059886;28;20033;-82
2021/05/10 03:15:15;;;;;;;17.38;13.23;;;16.40;90.30;;;;;;5043674;28;20056;-82
2021/05/10 03:17:41;;;;;;;17.90;12.98;;;16.40;90.30;;;;;;5056821;28;20029;-82
2021/05/10 03:20:10;;;;;;;19.27;13.82;;;16.30;90.30;;;;;;5041559;28;20069;-82
2021/05/10 03:22:36;;;;;;;17.20;13.40;;;16.40;90.40;;;;;;5059066;28;20064;-82
2021/05/10 03:25:03;;;;;;;15.40;13.18;;;16.30;90.40;;;;;;5031048;28;20037;-82
2021/05/10 03:27:38;;;;;;;17.77;12.90;;;16.30;90.40;;;;;;5044366;28;20043;-81
2021/05/10 03:30:05;;;;;;;13.98;12.00;;;16.30;90.40;;;;;;5046475;28;20107;-82
2021/05/10 03:32:31;;;;;;;16.20;13.48;;;16.30;90.40;;;;;;5013941;28;20115;-81
2021/05/10 03:34:57;;;;;;;15.48;12.50;;;16.20;90.50;;;;;;5060362;28;20100;-82
2021/05/10 03:37:22;;;;;;;17.35;13.00;;;16.30;90.50;;;;;;5039417;28;20033;-81
2021/05/10 03:39:48;;;;;;;17.55;13.43;;;16.30;90.60;;;;;;5019946;28;20037;-81
2021/05/10 03:42:14;;;;;;;13.65;12.07;;;16.30;90.50;;;;;;5035890;28;20036;-83
2021/05/10 03:44:42;;;;;;;14.40;11.60;;;16.20;90.50;;;;;;5049321;28;20112;-81
2021/05/10 03:47:08;;;;;;;13.13;11.13;;;16.30;90.50;;;;;;5033261;28;20482;-81
2021/05/10 03:49:33;;;;;;;15.00;11.95;;;16.30;90.40;;;;;;5007577;28;20033;-81
2021/05/10 03:51:59;;;;;;;14.90;10.98;;;16.30;90.40;;;;;;5026864;28;20055;-81
2021/05/10 03:54:25;;;;;;;11.25;10.00;;;16.30;90.40;;;;;;5020433;28;20051;-81
2021/05/10 03:56:51;;;;;;;14.18;9.68;;;16.30;90.30;;;;;;5038278;28;20033;-81
2021/05/10 03:59:18;;;;;;;12.63;8.68;;;16.30;90.30;;;;;;5021254;28;20109;-81
2021/05/10 04:01:44;;;;;;;11.52;8.05;;;16.30;90.10;;;;;;5022082;28;20060;-81
2021/05/10 04:04:26;;;;;;;15.00;8.32;;;16.30;90.10;;;;;;5053281;28;20087;-81
2021/05/10 04:14:53;;;;;;;9.40;6.30;;;16.40;89.30;;;;;;5021029;28;20115;-81
2021/05/10 04:17:20;;;;;;;12.93;5.60;;;16.40;88.60;;;;;;5012116;28;20047;-81
2021/05/10 04:19:45;;;;;;;9.20;5.47;;;16.40;88.40;;;;;;5031404;28;20116;-81
2021/05/10 04:22:11;;;;;;;6.30;5.03;;;16.50;88.90;;;;;;5030956;28;20040;-81
2021/05/10 04:24:39;;;;;;;7.18;4.65;;;16.50;88.00;;;;;;5015714;28;20152;-81
2021/05/10 04:27:05;;;;;;;7.45;4.00;;;16.50;87.40;;;;;;5021169;28;20149;-81
2021/05/10 04:29:32;;;;;;;6.53;3.90;;;16.50;86.50;;;;;;5001014;28;20060;-82
2021/05/10 04:31:57;;;;;;;11.43;3.75;;;16.60;86.00;;;;;;5046568;28;20304;-81
2021/05/10 04:34:23;;;;;;;7.70;2.78;;;16.60;85.20;;;;;;5044253;28;20036;-82
2021/05/10 04:36:49;;;;;;;10.02;3.58;;;16.70;84.40;;;;;;5033420;28;20278;-81
2021/05/10 04:39:15;;;;;;;9.60;3.40;;;16.80;84.00;;;;;;5043511;28;20507;-81
2021/05/10 04:41:41;;;;;;;5.28;2.75;;;16.80;83.60;;;;;;5042423;28;20048;-81
2021/05/10 04:44:06;;;;;;;10.25;3.10;;;16.90;83.00;;;;;;5003551;28;20084;-81
2021/05/10 04:46:32;;;;;;;3.45;2.80;;;16.90;82.30;;;;;;5020815;28;20055;-81
2021/05/10 04:48:58;;;;;;;6.55;2.80;;;17.00;81.90;;;;;;5026436;28;21997;-81
2021/05/10 04:51:24;;;;;;;5.93;2.70;;;17.10;81.20;;;;;;5025422;28;20043;-82
2021/05/10 04:53:50;;;;;;;4.80;2.58;;;17.10;80.70;;;;;;5024734;28;20041;-81
2021/05/10 04:56:16;;;;;;;4.93;2.75;;;17.20;80.10;;;;;;5037981;28;20025;-81
2021/05/10 04:58:42;;;;;;;4.65;2.67;;;17.20;80.30;;;;;;5042962;28;20099;-81
2021/05/10 05:01:08;;;;;;;4.00;2.45;;;17.30;79.50;;;;;;5046096;28;20128;-81
2021/05/10 05:03:34;;;;;;;5.00;2.40;;;17.30;79.00;;;;;;5021528;28;20128;-80
2021/05/10 05:06:00;;;;;;;6.53;2.33;;;17.40;78.80;;;;;;5047792;28;20048;-81
2021/05/10 05:08:32;;;;;;;5.32;2.20;;;17.40;78.50;;;;;;5009454;28;20261;-81
2021/05/10 05:10:58;;;;;;;5.55;2.40;;;17.50;78.40;;;;;;5047046;28;20536;-82
2021/05/10 05:13:25;;;;;;;5.72;2.47;;;17.50;77.90;;;;;;5044206;28;20059;-82
2021/05/10 05:15:51;;;;;;;4.20;2.33;;;17.60;77.60;;;;;;5044735;28;20041;-82
2021/05/10 05:18:17;;;;;;;3.05;2.10;;;17.70;77.40;;;;;;5039594;28;20246;-81
2021/05/10 05:20:44;;;;;;;7.05;2.38;;;17.80;76.90;;;;;;5063982;28;20028;-81
2021/05/10 05:23:23;;;;;;;5.78;2.40;;;17.90;76.50;;;;;;5044378;28;20117;-81
2021/05/10 05:25:57;;;;;;;6.45;2.38;;;18.10;76.70;;;;;;5037143;28;20168;-81
2021/05/10 05:28:24;;;;;;;5.70;2.17;;;18.20;75.50;;;;;;5040042;28;20036;-81
2021/05/10 05:30:50;;;;;;;4.10;2.00;;;18.30;75.20;;;;;;5054421;28;20052;-81
2021/05/10 05:33:15;;;;;;;5.43;2.20;;;18.40;74.90;;;;;;5010448;28;20507;-81
2021/05/10 05:35:42;;;;;;;4.32;2.30;;;18.50;75.30;;;;;;5024087;28;20036;-81
2021/05/10 05:38:12;;;;;;;3.47;2.10;;;18.60;74.70;;;;;;5045621;28;20142;-81
2021/05/10 05:40:39;;;;;;;7.82;2.00;;;18.80;74.10;;;;;;5040467;28;20040;-82
2021/05/10 05:43:07;;;;;;;3.70;2.03;;;18.90;73.70;;;;;;5037374;28;20041;-82
2021/05/10 05:45:38;;;;;;;2.78;1.90;;;18.90;73.70;;;;;;5035333;28;20112;-82
2021/05/10 05:48:06;;;;;;;6.32;2.03;;;18.90;74.20;;;;;;5038450;28;20498;-81
2021/05/10 05:50:33;;;;;;;6.13;1.80;;;18.90;73.70;;;;;;5029118;28;20067;-82
2021/05/10 05:52:59;;;;;;;5.38;1.90;;;18.90;72.70;;;;;;5023121;28;20033;-81
2021/05/10 05:55:26;;;;;;;3.35;1.80;;;19.00;72.50;;;;;;5050419;28;20086;-81
2021/05/10 05:57:52;;;;;;;3.45;1.80;;;19.10;71.90;;;;;;5034763;28;20033;-81
2021/05/10 06:00:19;;;;;;;4.90;1.83;;;19.20;71.10;;;;;;5043922;28;20033;-80
2021/05/10 06:02:45;;;;;;;5.35;1.77;;;19.20;70.40;;;;;;5044815;28;20038;-80
2021/05/10 06:05:13;;;;;;;4.32;1.85;;;19.30;69.90;;;;;;5044764;28;20032;-80
2021/05/10 06:07:43;;;;;;;4.82;1.70;;;19.40;69.00;;;;;;5045847;28;20529;-79
2021/05/10 06:10:11;;;;;;;5.30;1.85;;;19.50;68.20;;;;;;5044852;28;20403;-82
2021/05/10 06:12:39;;;;;;;4.10;1.50;;;19.60;68.00;;;;;;5038360;28;20029;-81
2021/05/10 06:15:07;;;;;;;5.85;1.58;;;19.70;67.10;;;;;;5021760;28;20037;-80
2021/05/10 06:17:35;;;;;;;4.93;1.77;;;19.80;66.80;;;;;;5040070;28;20724;-80
2021/05/10 06:20:06;;;;;;;3.90;1.73;;;19.90;66.50;;;;;;5044869;28;20104;-79
2021/05/10 06:22:32;;;;;;;4.18;1.45;;;20.00;64.80;;;;;;5047057;28;20067;-79
2021/05/10 06:24:58;;;;;;;3.58;1.63;;;20.00;64.50;;;;;;5043720;28;20044;-79
2021/05/10 06:27:24;;;;;;;5.15;1.48;;;20.10;62.70;;;;;;5017135;28;20037;-81
2021/05/10 06:29:50;;;;;;;5.50;1.73;;;20.10;62.10;;;;;;5027472;28;20037;-81
2021/05/10 06:32:16;;;;;;;4.43;1.63;;;20.20;62.30;;;;;;5042465;28;20036;-81
2021/05/10 06:34:41;;;;;;;5.50;1.80;;;20.20;62.90;;;;;;5039114;28;20546;-81
2021/05/10 06:37:07;;;;;;;5.93;1.95;;;20.10;63.50;;;;;;5038426;28;20472;-80
2021/05/10 06:39:33;;;;;;;6.65;2.10;;;20.10;63.90;;;;;;5030848;28;20035;-81
2021/05/10 06:41:59;;;;;;;4.47;1.67;;;20.00;63.70;;;;;;5027983;28;20144;-80
2021/05/10 06:44:31;;;;;;;4.10;1.65;;;20.10;63.60;;;;;;5048503;28;20052;-80
2021/05/10 06:46:57;;;;;;;5.82;1.50;;;20.10;63.90;;;;;;5036230;28;20040;-81
2021/05/10 06:49:23;;;;;;;6.88;1.70;;;20.10;63.70;;;;;;5035937;28;20495;-80
2021/05/10 06:51:48;;;;;;;7.40;1.58;;;20.20;63.50;;;;;;5026738;28;20049;-80
2021/05/10 06:54:14;;;;;;;4.60;1.70;;;20.30;63.10;;;;;;5027219;28;20032;-80
2021/05/10 06:56:40;;;;;;;6.63;1.83;;;20.40;62.40;;;;;;5025064;28;20048;-79
2021/05/10 06:59:06;;;;;;;3.17;1.38;;;20.40;62.20;;;;;;5041101;28;20573;-80
2021/05/10 07:01:32;;;;;;;4.30;1.60;;;20.30;61.40;;;;;;5044134;28;20399;-81
2021/05/10 07:03:58;;;;;;;5.28;1.67;;;20.40;61.70;;;;;;5061987;28;20039;-83
2021/05/10 07:06:23;;;;;;;4.40;1.85;;;20.40;61.80;;;;;;5027926;28;20028;-81
2021/05/10 07:08:49;;;;;;;4.80;1.45;;;20.40;61.40;;;;;;5060366;28;20065;-77
2021/05/10 07:11:15;;;;;;;4.70;1.58;;;20.40;61.60;;;;;;5043717;28;20038;-82
2021/05/10 07:13:42;;;;;;;6.78;1.60;;;20.40;61.20;;;;;;4982393;28;20041;-79
2021/05/10 07:16:08;;;;;;;5.18;1.70;;;20.30;61.60;;;;;;5020913;28;20112;-83
2021/05/10 07:18:34;;;;;;;3.30;1.38;;;20.30;61.90;;;;;;5031143;28;20479;-81
2021/05/10 07:21:00;;;;;;;2.67;1.40;;;20.40;62.30;;;;;;5045863;28;20041;-84
2021/05/10 07:23:26;;;;;;;4.35;1.35;;;20.50;61.90;;;;;;5034455;28;20033;-84
2021/05/10 07:25:52;;;;;;;5.05;1.00;;;20.60;60.90;;;;;;5001038;28;20048;-85
2021/05/10 07:28:19;;;;;;;8.45;1.10;;;20.80;60.50;;;;;;5013072;28;20032;-83
2021/05/10 07:30:46;;;;;;;18.00;1.30;;;21.00;58.90;;;;;;5032274;28;20102;-84
2021/05/10 07:33:12;;;;;;;11.35;1.10;;;20.90;57.80;;;;;;5020400;28;20293;-84
2021/05/10 07:35:39;;;;;;;5.57;0.90;;;20.80;58.40;;;;;;5034399;28;20036;-82
2021/05/10 07:38:06;;;;;;;2.97;0.88;;;20.80;58.70;;;;;;5030447;28;20030;-83
2021/05/10 07:40:32;;;;;;;5.25;0.90;;;20.80;58.90;;;;;;5046897;28;20118;-85
2021/05/10 07:42:59;;;;;;;4.25;0.75;;;20.80;58.90;;;;;;5056312;28;20033;-85
2021/05/10 07:45:25;;;;;;;2.10;0.80;;;20.80;59.10;;;;;;5047706;28;20038;-84
2021/05/10 07:47:54;;;;;;;4.63;1.02;;;20.80;58.70;;;;;;5040838;28;20446;-84
2021/05/10 07:50:25;;;;;;;3.78;1.00;;;20.80;58.40;;;;;;5026195;28;20051;-85
2021/05/10 07:52:52;;;;;;;5.60;1.02;;;20.80;59.40;;;;;;5060156;28;20033;-85
2021/05/10 07:55:19;;;;;;;2.47;1.00;;;21.00;60.00;;;;;;5017276;28;20385;-84
2021/05/10 07:57:46;;;;;;;2.67;1.10;;;21.00;59.80;;;;;;5035061;28;20037;-83
2021/05/10 08:00:16;;;;;;;5.97;1.10;;;21.00;60.00;;;;;;5041586;28;20055;-81
2021/05/10 08:02:44;;;;;;;3.25;1.13;;;21.10;60.50;;;;;;5037944;28;20260;-83
2021/05/10 08:05:12;;;;;;;7.80;1.20;;;21.10;61.40;;;;;;5021814;28;20025;-83
2021/05/10 08:07:38;;;;;;;6.57;1.35;;;21.10;61.90;;;;;;5031750;28;20037;-85
2021/05/10 08:10:07;;;;;;;6.70;1.63;;;21.00;63.00;;;;;;5035254;28;20654;-84
2021/05/10 08:12:35;;;;;;;2.67;1.27;;;20.90;62.40;;;;;;5005710;28;20109;-84
2021/05/10 08:15:01;;;;;;;6.13;1.45;;;20.60;63.00;;;;;;5056878;28;20084;-83
2021/05/10 08:17:29;;;;;;;7.72;1.15;;;20.40;63.80;;;;;;5030750;28;20480;-83
2021/05/10 08:19:55;;;;;;;3.30;0.80;;;20.20;64.50;;;;;;5051429;28;20492;-86
2021/05/10 08:22:22;;;;;;;2.67;0.90;;;20.20;63.80;;;;;;5023667;28;20490;-84
2021/05/10 08:24:48;;;;;;;3.15;0.90;;;20.00;63.70;;;;;;5013834;28;20120;-80
2021/05/10 08:27:13;;;;;;;1.92;0.80;;;19.90;64.20;;;;;;5064103;28;20036;-81
2021/05/10 08:29:39;;;;;;;3.25;0.90;;;19.80;64.60;;;;;;5024811;28;20038;-81
2021/05/10 08:32:05;;;;;;;4.30;1.02;;;19.70;65.30;;;;;;5049901;28;20041;-82
2021/05/10 08:34:31;;;;;;;1.83;0.90;;;19.70;65.70;;;;;;5065488;28;20052;-80
2021/05/10 08:36:58;;;;;;;3.05;1.00;;;19.60;65.90;;;;;;5001386;28;20034;-83
2021/05/10 08:39:24;;;;;;;2.85;1.00;;;19.70;65.90;;;;;;5029612;28;20033;-87
2021/05/10 08:41:50;;;;;;;2.65;0.90;;;19.80;66.00;;;;;;5036319;28;20412;-81
2021/05/10 08:44:16;;;;;;;4.18;0.82;;;19.80;66.50;;;;;;5032543;28;20136;-84
2021/05/10 08:46:43;;;;;;;2.95;1.10;;;19.90;66.30;;;;;;5036156;28;20085;-82
2021/05/10 08:49:09;;;;;;;2.03;0.90;;;20.00;66.60;;;;;;5042550;28;20033;-83
2021/05/10 08:51:38;;;;;;;3.03;0.80;;;19.90;66.30;;;;;;5052235;28;20041;-81
2021/05/10 08:54:17;;;;;;;5.03;0.85;;;19.90;66.40;;;;;;5041534;28;20080;-83
2021/05/10 08:56:44;;;;;;;5.05;1.00;;;19.90;66.40;;;;;;5043193;28;20124;-80
2021/05/10 08:59:09;;;;;;;3.17;0.82;;;19.90;66.20;;;;;;5040814;28;20483;-84
2021/05/10 09:01:50;;;;;;;5.78;0.68;;;19.90;66.10;;;;;;5022487;28;20065;-82
2021/05/10 09:04:17;;;;;;;1.33;0.65;;;20.10;65.50;;;;;;5071622;28;20046;-82
2021/05/10 09:06:44;;;;;;;2.25;0.50;;;20.20;65.10;;;;;;5048728;28;20075;-82
2021/05/10 09:09:10;;;;;;;0.60;0.50;;;20.30;64.20;;;;;;5041238;28;20041;-86
2021/05/10 09:11:56;;;;;;;1.73;0.60;;;20.40;63.30;;;;;;5022761;28;20048;-85
2021/05/10 09:14:34;;;;;;;5.75;0.82;;;20.30;62.90;;;;;;5057802;28;20033;-83
2021/05/10 09:17:00;;;;;;;2.95;0.65;;;20.30;62.40;;;;;;5054726;28;20029;-81
2021/05/10 09:20:13;;;;;;;0.85;0.60;;;20.00;63.20;;;;;;5009005;28;20323;-84
2021/05/10 09:22:50;;;;;;;1.13;0.73;;;19.90;63.70;;;;;;5039676;28;20175;-84
2021/05/10 09:25:16;;;;;;;2.58;0.70;;;19.70;64.10;;;;;;5040430;28;20098;-82
2021/05/10 09:27:43;;;;;;;2.88;0.77;;;19.70;64.80;;;;;;5009257;28;20056;-82
2021/05/10 09:30:19;;;;;;;2.63;0.70;;;19.70;65.10;;;;;;5035590;28;20441;-80
2021/05/10 09:32:54;;;;;;;1.70;0.70;;;20.00;66.00;;;;;;5044818;28;20048;-85
2021/05/10 09:35:29;;;;;;;1.55;1.00;;;20.20;65.70;;;;;;5012855;28;20048;-82
2021/05/10 09:37:57;;;;;;;1.35;1.00;;;20.30;65.30;;;;;;5039593;28;20037;-83
2021/05/10 09:40:27;;;;;;;5.78;1.27;;;20.40;64.40;;;;;;5048467;28;20037;-83
2021/05/10 09:42:58;;;;;;;2.53;1.20;;;20.50;63.30;;;;;;5063992;28;20033;-82
2021/05/10 09:45:35;;;;;;;3.60;1.00;;;20.40;62.10;;;;;;5054088;28;20120;-82
2021/05/10 09:48:09;;;;;;;2.67;1.17;;;20.30;63.30;;;;;;5056164;28;20033;-85
2021/05/10 09:50:40;;;;;;;4.05;1.40;;;20.20;64.20;;;;;;5050463;28;20040;-86
2021/05/10 09:53:07;;;;;;;2.78;1.17;;;20.10;63.80;;;;;;5055361;28;20041;-84
2021/05/10 09:55:39;;;;;;;3.53;1.30;;;20.10;63.70;;;;;;5042806;28;20045;-85
2021/05/10 09:58:06;;;;;;;4.05;1.27;;;20.20;64.10;;;;;;5033061;28;20044;-83
2021/05/10 10:00:32;;;;;;;4.15;1.40;;;20.40;63.70;;;;;;5041377;28;20080;-84
2021/05/10 10:03:00;;;;;;;2.33;1.10;;;20.60;63.40;;;;;;5036855;28;20484;-84
2021/05/10 10:05:29;;;;;;;1.85;1.08;;;20.70;63.20;;;;;;5011584;28;20039;-82
2021/05/10 10:07:57;;;;;;;5.40;1.30;;;20.70;63.00;;;;;;5051506;28;20079;-83
2021/05/10 10:10:22;;;;;;;5.90;1.17;;;20.70;63.10;;;;;;5049772;28;20112;-84
2021/05/10 10:12:48;;;;;;;4.68;1.70;;;20.60;62.70;;;;;;5034175;28;20044;-85
2021/05/10 10:15:14;;;;;;;2.15;1.23;;;20.40;62.90;;;;;;5010922;28;20041;-84
2021/05/10 10:17:40;;;;;;;3.58;1.55;;;20.40;63.70;;;;;;5034510;28;20116;-85
2021/05/10 10:20:08;;;;;;;2.42;1.85;;;20.40;63.40;;;;;;5036351;28;20199;-84
2021/05/10 10:22:34;;;;;;;5.25;1.30;;;20.30;63.20;;;;;;5025771;28;20547;-85
2021/05/10 10:25:04;;;;;;;3.53;1.23;;;20.10;63.30;;;;;;5029506;28;20037;-83
2021/05/10 10:27:31;;;;;;;5.43;1.20;;;20.00;64.00;;;;;;5056398;28;20044;-81
2021/05/10 10:29:57;;;;;;;5.13;1.27;;;19.70;64.60;;;;;;5003314;28;20037;-83
2021/05/10 10:32:24;;;;;;;3.25;1.48;;;19.20;65.20;;;;;;5039512;28;20398;-82
2021/05/10 10:34:51;;;;;;;3.40;1.17;;;18.60;67.50;;;;;;5042810;28;20037;-83
2021/05/10 10:37:18;;;;;;;2.95;1.17;;;18.10;69.20;;;;;;5043044;28;20033;-83
2021/05/10 10:39:51;;;;;;;2.53;1.27;;;17.70;70.10;;;;;;5048467;28;20052;-81
2021/05/10 10:42:25;;;;;;;3.10;1.30;;;17.30;70.90;;;;;;5046207;28;20135;-82
2021/05/10 10:45:02;;;;;;;2.38;1.20;;;17.00;71.60;;;;;;5038929;28;20123;-83
2021/05/10 10:47:47;;;;;;;1.42;0.93;;;16.80;71.50;;;;;;5040446;28;20399;-84
2021/05/10 10:50:21;;;;;;;2.85;1.10;;;16.70;71.20;;;;;;5027195;28;20447;-81
2021/05/10 10:52:57;;;;;;;2.47;1.20;;;16.70;71.70;;;;;;5037857;28;20054;-82
2021/05/10 10:55:24;;;;;;;2.90;0.85;;;16.70;70.90;;;;;;5043965;28;20513;-82
2021/05/10 10:58:14;;;;;;;4.13;1.10;;;16.80;70.90;;;;;;5045256;28;20630;-82
2021/05/10 11:01:03;;;;;;;1.88;1.10;;;16.80;70.60;;;;;;5062188;28;20044;-82
2021/05/10 11:03:29;;;;;;;4.20;1.33;;;16.90;70.10;;;;;;5046189;28;20728;-81
2021/05/10 11:05:56;;;;;;;6.30;1.30;;;17.10;70.10;;;;;;5059127;28;20032;-81
2021/05/10 11:08:40;;;;;;;1.73;1.00;;;17.20;69.80;;;;;;5043702;28;20053;-81
2021/05/10 11:11:07;;;;;;;1.08;0.88;;;17.20;69.20;;;;;;5037148;28;20095;-81
2021/05/10 11:13:33;;;;;;;3.92;1.35;;;17.20;69.20;;;;;;5044360;28;20040;-80
2021/05/10 11:16:09;;;;;;;1.50;0.77;;;17.20;69.20;;;;;;5047289;28;20033;-79
2021/05/10 11:18:47;;;;;;;2.22;1.10;;;17.20;69.40;;;;;;5036040;28;20064;-80
2021/05/10 11:21:22;;;;;;;1.80;1.15;;;17.10;69.70;;;;;;5041258;28;20036;-80
2021/05/10 11:23:57;;;;;;;2.08;1.15;;;17.00;70.20;;;;;;5044655;28;20399;-82
2021/05/10 11:26:39;;;;;;;2.42;1.10;;;17.00;70.20;;;;;;5034227;28;20040;-83
2021/05/10 11:29:26;;;;;;;3.22;1.10;;;16.90;70.40;;;;;;5045647;28;20178;-80
2021/05/10 11:31:53;;;;;;;3.55;1.40;;;16.90;70.90;;;;;;5044593;28;20051;-80
2021/05/10 11:34:32;;;;;;;2.72;1.23;;;17.00;71.30;;;;;;5053070;28;20525;-81
2021/05/10 11:36:59;;;;;;;2.97;1.20;;;17.00;71.20;;;;;;5044410;28;20119;-81
2021/05/10 11:39:31;;;;;;;1.67;1.10;;;17.10;71.10;;;;;;5042191;28;20033;-84
2021/05/10 11:42:02;;;;;;;2.13;1.08;;;17.20;70.90;;;;;;5053525;28;20043;-80
2021/05/10 11:44:35;;;;;;;4.15;1.30;;;17.30;71.00;;;;;;5045414;28;20037;-85
2021/05/10 11:47:12;;;;;;;1.95;1.10;;;17.40;70.10;;;;;;5043451;28;20045;-83
2021/05/10 11:49:41;;;;;;;6.53;1.48;;;17.50;69.50;;;;;;5039937;28;20060;-80
2021/05/10 11:52:10;;;;;;;2.03;1.30;;;17.50;70.00;;;;;;5043065;28;20039;-82
2021/05/10 11:54:39;;;;;;;2.88;1.40;;;17.50;69.60;;;;;;5044676;28;20047;-81
2021/05/10 11:57:05;;;;;;;1.65;1.13;;;17.50;69.50;;;;;;5035109;28;20043;-85
2021/05/10 12:02:08;;;;;;;2.03;1.38;;;17.40;69.30;;;;;;5039518;28;20057;-81
2021/05/10 12:04:42;;;;;;;3.05;1.50;;;17.30;69.50;;;;;;5034802;28;20428;-80
2021/05/10 12:07:09;;;;;;;7.20;1.70;;;17.30;70.20;;;;;;5043497;28;20476;-83
2021/05/10 12:09:46;;;;;;;3.08;1.80;;;17.40;70.60;;;;;;5059602;28;20040;-84
2021/05/10 12:12:17;;;;;;;3.78;2.25;;;17.40;70.70;;;;;;5055274;28;20095;-83
2021/05/10 12:14:46;;;;;;;4.03;2.38;;;17.30;71.20;;;;;;5060185;28;20040;-82
2021/05/10 12:17:14;;;;;;;3.25;2.30;;;17.40;71.20;;;;;;5039590;28;20033;-83
2021/05/10 12:19:59;;;;;;;4.97;2.10;;;17.20;71.50;;;;;;5059219;28;20044;-81
2021/05/10 12:22:29;;;;;;;3.33;2.03;;;17.20;71.80;;;;;;5047574;28;20052;-82
2021/05/10 12:24:59;;;;;;;2.50;2.00;;;17.10;72.20;;;;;;5045006;28;20087;-81
2021/05/10 12:27:47;;;;;;;4.35;2.60;;;17.00;72.40;;;;;;5044555;28;20218;-83
2021/05/10 12:30:18;;;;;;;3.10;2.58;;;17.00;72.60;;;;;;5044960;28;20033;-84
2021/05/10 12:32:46;;;;;;;3.75;2.50;;;16.90;73.10;;;;;;5054626;28;20067;-82
2021/05/10 12:35:15;;;;;;;4.57;2.70;;;16.90;73.60;;;;;;5037347;28;20041;-81
2021/05/10 12:37:44;;;;;;;4.15;2.67;;;16.80;73.30;;;;;;5047595;28;20029;-80
2021/05/10 12:40:11;;;;;;;5.15;2.72;;;16.70;73.60;;;;;;5050154;28;20034;-81
2021/05/10 12:42:38;;;;;;;5.10;2.78;;;16.70;74.20;;;;;;5026122;28;20254;-82
2021/05/10 12:45:12;;;;;;;3.45;2.78;;;16.60;74.60;;;;;;5030309;28;20026;-82
2021/05/10 12:47:43;;;;;;;5.28;2.70;;;16.50;75.70;;;;;;5041306;28;20601;-81
2021/05/10 12:50:30;;;;;;;8.05;3.20;;;16.50;76.30;;;;;;5056191;28;20040;-80
2021/05/10 12:52:56;;;;;;;5.05;2.92;;;16.50;76.20;;;;;;5043564;28;20373;-81
2021/05/10 12:55:22;;;;;;;8.02;2.85;;;16.60;76.50;;;;;;5042322;28;20130;-82
2021/05/10 12:57:50;;;;;;;6.65;3.13;;;16.70;75.60;;;;;;5039067;28;20510;-83
2021/05/10 13:00:29;;;;;;;4.13;3.20;;;16.70;75.60;;;;;;5050957;28;20058;-83